Airfield :
LOGIN :

Register | Disclaimer

   EN    FR    IT 

 










Legend :    VFR   Marginal VFR   IFR   Intensive IFR   Very Intensive IFR
Visi :
Ceiling :
>= 8 km
>= 3000ft
5 to 8 km
1000 to 3000 ft
1500m to 5 km
500 to 1000 ft
800 to 1500m
200 to 500 ft
< 800m
< 200 ft
Symbols :   Thunderstorms  Fog  Heavy snow  Heavy precipitations  Wind > 20 kt
SIGMETs :     Misc.  Thunderstorms  Icing  Turbulence  Mountain Waves  Volcanic Ashes







- Airport Elevation : 510 ft


LJCE - Cerklje

CURRENT METAR :
  • 240930Z 08006KT 040V100 CAVOK 18/14 Q1019 RMK BLU

EXPIRED METARs :
  • 240900Z 09004KT 060V120 CAVOK 18/15 Q1019 RMK BLU
  • 240830Z VRB02KT 9999 -RA FEW040 BKN090 OVC110 18/14 Q1019 RMK BLU
  • 240800Z VRB02KT 9999 -RA FEW040 BKN090 OVC110 17/14 Q1019 RMK BLU
  • 240730Z VRB02KT 9999 -RA FEW040 BKN090 OVC110 17/14 Q1018 RMK BLU
  • 240700Z 24004KT 190V280 CAVOK 17/13 Q1018 RMK BLU

TAF TAF LJCE
Valid from the 24 at 09:00 until the 24 at 18:00 UTC


240800Z 2409/2418 07004KT 9999 FEW040 BKN090 OVC110
TEMPO 2409/2418 -SHRA SCT040TCU BKN060
PROB30
TEMPO 2412/2418 VRB15KT TSRA SCT040CB BKN050
No reported NOTAMs for that airfield.
2 SIGMETs reported for the Ljubljana FIR (LJLA) :
 
Embedded thunderstorms
LJLA SIGMET 3 VALID 240900/241100 LJLJ
LJLA LJUBLJANA FIR EMBD TS OBS S OF N4558 AND W OF E01418 TOP FL300 STNR NC=
Embedded thunderstorms
LJLA SIGMET 2 VALID 240900/240945 LJLJ
LJLA LJUBLJANA FIR EMBD TS OBS N4545 E01358 TOP FL300 MOV SSE 20KT NC=



MET'MAP, your aeronautical weather chart ! - Copyright ORBIFLY December 2007 - Disclaimer

ORBIFLY MET'MAP TEAM :

Programming & Development : Alexandra Zaïnal
Concept & Development : Baudouin d'Aumeries
Co-Development & Prog : Marc-Olivier Méhu
Technical & hardware support : Manuel Goepfert

Contact : metmap@orbifly.com




SOURCES & CREDITS :

   NOAA